sensor_id;sensor_type;location;lat;lon;timestamp;pressure;altitude;pressure_sealevel;temperature;humidity
61478;BME280;47345;52.334;10.392;2023-04-06T00:01:57;101304.55;;;1.69;69.82
61478;BME280;47345;52.334;10.392;2023-04-06T00:04:29;101300.60;;;1.67;69.65
61478;BME280;47345;52.334;10.392;2023-04-06T00:07:01;101304.82;;;1.65;69.72
61478;BME280;47345;52.334;10.392;2023-04-06T00:09:32;101300.01;;;1.63;69.42
61478;BME280;47345;52.334;10.392;2023-04-06T00:12:04;101297.56;;;1.60;69.27
61478;BME280;47345;52.334;10.392;2023-04-06T00:14:36;101297.17;;;1.58;69.68
61478;BME280;47345;52.334;10.392;2023-04-06T00:17:08;101289.70;;;1.58;69.84
61478;BME280;47345;52.334;10.392;2023-04-06T00:19:40;101291.45;;;1.56;69.67
61478;BME280;47345;52.334;10.392;2023-04-06T00:22:12;101287.05;;;1.53;69.26
61478;BME280;47345;52.334;10.392;2023-04-06T00:24:44;101287.84;;;1.50;69.53
61478;BME280;47345;52.334;10.392;2023-04-06T00:27:16;101285.85;;;1.48;69.74
61478;BME280;47345;52.334;10.392;2023-04-06T00:29:47;101283.23;;;1.47;69.76
61478;BME280;47345;52.334;10.392;2023-04-06T00:32:19;101282.94;;;1.46;69.94
61478;BME280;47345;52.334;10.392;2023-04-06T00:34:50;101278.59;;;1.45;69.53
61478;BME280;47345;52.334;10.392;2023-04-06T00:37:22;101278.05;;;1.43;69.58
61478;BME280;47345;52.334;10.392;2023-04-06T00:39:53;101277.76;;;1.42;70.14
61478;BME280;47345;52.334;10.392;2023-04-06T00:42:24;101279.79;;;1.41;70.25
61478;BME280;47345;52.334;10.392;2023-04-06T00:44:57;101277.77;;;1.40;69.82
61478;BME280;47345;52.334;10.392;2023-04-06T00:47:28;101277.45;;;1.37;69.84
61478;BME280;47345;52.334;10.392;2023-04-06T00:50:00;101276.21;;;1.35;70.00
61478;BME280;47345;52.334;10.392;2023-04-06T00:52:31;101273.52;;;1.32;70.18
61478;BME280;47345;52.334;10.392;2023-04-06T00:55:03;101275.30;;;1.29;70.11
61478;BME280;47345;52.334;10.392;2023-04-06T00:57:34;101272.68;;;1.26;70.29
61478;BME280;47345;52.334;10.392;2023-04-06T01:00:08;101270.39;;;1.23;70.42
61478;BME280;47345;52.334;10.392;2023-04-06T01:02:40;101265.05;;;1.20;70.26
61478;BME280;47345;52.334;10.392;2023-04-06T01:05:11;101264.93;;;1.17;70.62
61478;BME280;47345;52.334;10.392;2023-04-06T01:07:42;101262.63;;;1.15;70.57
61478;BME280;47345;52.334;10.392;2023-04-06T01:10:24;101261.19;;;1.13;70.81
61478;BME280;47345;52.334;10.392;2023-04-06T01:12:55;101260.23;;;1.09;70.40
61478;BME280;47345;52.334;10.392;2023-04-06T01:15:27;101255.45;;;1.05;69.95
61478;BME280;47345;52.334;10.392;2023-04-06T01:17:59;101253.12;;;1.00;69.84
61478;BME280;47345;52.334;10.392;2023-04-06T01:20:30;101250.81;;;0.98;70.35
61478;BME280;47345;52.334;10.392;2023-04-06T01:23:01;101249.08;;;0.97;70.37
61478;BME280;47345;52.334;10.392;2023-04-06T01:25:32;101249.17;;;0.96;70.30
61478;BME280;47345;52.334;10.392;2023-04-06T01:28:04;101252.76;;;0.94;70.40
61478;BME280;47345;52.334;10.392;2023-04-06T01:30:36;101247.65;;;0.93;70.42
61478;BME280;47345;52.334;10.392;2023-04-06T01:33:06;101250.63;;;0.92;70.40
61478;BME280;47345;52.334;10.392;2023-04-06T01:35:38;101246.98;;;0.90;70.10
61478;BME280;47345;52.334;10.392;2023-04-06T01:38:09;101247.20;;;0.88;70.02
61478;BME280;47345;52.334;10.392;2023-04-06T01:40:41;101241.80;;;0.87;70.06
61478;BME280;47345;52.334;10.392;2023-04-06T01:43:12;101247.76;;;0.87;70.29
61478;BME280;47345;52.334;10.392;2023-04-06T01:45:43;101244.52;;;0.85;70.12
61478;BME280;47345;52.334;10.392;2023-04-06T01:48:14;101246.92;;;0.84;70.13
61478;BME280;47345;52.334;10.392;2023-04-06T01:50:45;101245.14;;;0.82;70.17
61478;BME280;47345;52.334;10.392;2023-04-06T01:53:16;101245.23;;;0.81;70.27
61478;BME280;47345;52.334;10.392;2023-04-06T01:55:47;101247.00;;;0.79;70.15
61478;BME280;47345;52.334;10.392;2023-04-06T01:58:18;101246.12;;;0.77;70.13
61478;BME280;47345;52.334;10.392;2023-04-06T02:00:50;101247.11;;;0.76;70.22
61478;BME280;47345;52.334;10.392;2023-04-06T02:03:21;101244.77;;;0.73;70.30
61478;BME280;47345;52.334;10.392;2023-04-06T02:05:52;101243.80;;;0.72;70.44
61478;BME280;47345;52.334;10.392;2023-04-06T02:08:23;101241.77;;;0.71;70.52
61478;BME280;47345;52.334;10.392;2023-04-06T02:10:53;101239.29;;;0.68;70.33
61478;BME280;47345;52.334;10.392;2023-04-06T02:13:24;101239.48;;;0.66;70.44
61478;BME280;47345;52.334;10.392;2023-04-06T02:15:54;101237.15;;;0.64;70.57
61478;BME280;47345;52.334;10.392;2023-04-06T02:18:26;101235.89;;;0.62;70.49
61478;BME280;47345;52.334;10.392;2023-04-06T02:20:57;101236.41;;;0.60;70.35
61478;BME280;47345;52.334;10.392;2023-04-06T02:23:27;101234.85;;;0.56;70.47
61478;BME280;47345;52.334;10.392;2023-04-06T02:25:59;101235.11;;;0.54;70.36
61478;BME280;47345;52.334;10.392;2023-04-06T02:28:29;101233.43;;;0.50;70.40
61478;BME280;47345;52.334;10.392;2023-04-06T02:31:00;101233.59;;;0.48;70.80
61478;BME280;47345;52.334;10.392;2023-04-06T02:33:30;101232.46;;;0.47;70.72
61478;BME280;47345;52.334;10.392;2023-04-06T02:36:01;101228.89;;;0.47;70.90
61478;BME280;47345;52.334;10.392;2023-04-06T02:38:31;101229.21;;;0.47;71.08
61478;BME280;47345;52.334;10.392;2023-04-06T02:41:02;101226.27;;;0.46;70.92
61478;BME280;47345;52.334;10.392;2023-04-06T02:43:33;101229.20;;;0.43;70.64
61478;BME280;47345;52.334;10.392;2023-04-06T02:46:04;101224.67;;;0.39;70.64
61478;BME280;47345;52.334;10.392;2023-04-06T02:48:35;101227.92;;;0.37;70.70
61478;BME280;47345;52.334;10.392;2023-04-06T02:51:06;101224.30;;;0.35;70.71
61478;BME280;47345;52.334;10.392;2023-04-06T02:53:37;101219.30;;;0.32;70.44
61478;BME280;47345;52.334;10.392;2023-04-06T02:56:08;101220.31;;;0.31;70.37
61478;BME280;47345;52.334;10.392;2023-04-06T02:58:39;101219.87;;;0.28;70.46
61478;BME280;47345;52.334;10.392;2023-04-06T03:01:09;101221.91;;;0.25;70.64
61478;BME280;47345;52.334;10.392;2023-04-06T03:03:40;101222.06;;;0.23;70.70
61478;BME280;47345;52.334;10.392;2023-04-06T03:06:11;101219.16;;;0.21;70.92
61478;BME280;47345;52.334;10.392;2023-04-06T03:08:42;101217.71;;;0.21;71.16
61478;BME280;47345;52.334;10.392;2023-04-06T03:11:14;101222.30;;;0.20;70.85
61478;BME280;47345;52.334;10.392;2023-04-06T03:13:46;101220.63;;;0.19;70.84
61478;BME280;47345;52.334;10.392;2023-04-06T03:16:17;101217.30;;;0.18;71.06
61478;BME280;47345;52.334;10.392;2023-04-06T03:18:49;101217.89;;;0.17;71.26
61478;BME280;47345;52.334;10.392;2023-04-06T03:21:20;101219.19;;;0.16;71.30
61478;BME280;47345;52.334;10.392;2023-04-06T03:23:51;101221.41;;;0.13;70.96
61478;BME280;47345;52.334;10.392;2023-04-06T03:26:22;101220.70;;;0.11;71.12
61478;BME280;47345;52.334;10.392;2023-04-06T03:28:52;101223.58;;;0.09;71.25
61478;BME280;47345;52.334;10.392;2023-04-06T03:31:23;101223.40;;;0.07;71.39
61478;BME280;47345;52.334;10.392;2023-04-06T03:33:54;101221.91;;;0.05;71.78
61478;BME280;47345;52.334;10.392;2023-04-06T03:36:24;101224.04;;;0.05;72.04
61478;BME280;47345;52.334;10.392;2023-04-06T03:38:56;101222.92;;;0.06;72.20
61478;BME280;47345;52.334;10.392;2023-04-06T03:41:26;101222.28;;;0.05;71.91
61478;BME280;47345;52.334;10.392;2023-04-06T03:43:57;101224.39;;;0.03;71.93
61478;BME280;47345;52.334;10.392;2023-04-06T03:46:28;101222.73;;;-0.00;71.81
61478;BME280;47345;52.334;10.392;2023-04-06T03:48:59;101223.41;;;-0.05;71.67
61478;BME280;47345;52.334;10.392;2023-04-06T03:51:30;101227.02;;;-0.07;72.04
61478;BME280;47345;52.334;10.392;2023-04-06T03:54:02;101224.45;;;-0.08;72.06
61478;BME280;47345;52.334;10.392;2023-04-06T03:56:34;101227.05;;;-0.09;72.08
61478;BME280;47345;52.334;10.392;2023-04-06T03:59:05;101225.66;;;-0.10;72.19
61478;BME280;47345;52.334;10.392;2023-04-06T04:01:36;101220.77;;;-0.12;72.25
61478;BME280;47345;52.334;10.392;2023-04-06T04:04:08;101228.32;;;-0.10;72.20
61478;BME280;47345;52.334;10.392;2023-04-06T04:06:39;101229.72;;;-0.09;72.20
61478;BME280;47345;52.334;10.392;2023-04-06T04:09:10;101229.20;;;-0.09;72.57
61478;BME280;47345;52.334;10.392;2023-04-06T04:11:41;101228.54;;;-0.08;72.54
61478;BME280;47345;52.334;10.392;2023-04-06T04:14:12;101227.71;;;-0.06;72.48
61478;BME280;47345;52.334;10.392;2023-04-06T04:16:43;101232.86;;;-0.04;72.54
61478;BME280;47345;52.334;10.392;2023-04-06T04:19:14;101231.13;;;-0.02;72.36
61478;BME280;47345;52.334;10.392;2023-04-06T04:21:46;101233.32;;;-0.01;72.26
61478;BME280;47345;52.334;10.392;2023-04-06T04:24:17;101235.59;;;0.00;72.33
61478;BME280;47345;52.334;10.392;2023-04-06T04:26:47;101236.55;;;0.02;72.14
61478;BME280;47345;52.334;10.392;2023-04-06T04:29:18;101231.40;;;0.01;72.21
61478;BME280;47345;52.334;10.392;2023-04-06T04:31:51;101234.16;;;0.00;72.01
61478;BME280;47345;52.334;10.392;2023-04-06T04:34:22;101232.09;;;0.01;72.21
61478;BME280;47345;52.334;10.392;2023-04-06T04:36:54;101229.52;;;0.02;72.18
61478;BME280;47345;52.334;10.392;2023-04-06T04:39:25;101230.21;;;0.02;72.12
61478;BME280;47345;52.334;10.392;2023-04-06T04:41:56;101230.52;;;0.03;72.10
61478;BME280;47345;52.334;10.392;2023-04-06T04:44:27;101231.78;;;0.03;71.98
61478;BME280;47345;52.334;10.392;2023-04-06T04:46:57;101234.49;;;0.03;72.06
61478;BME280;47345;52.334;10.392;2023-04-06T04:49:28;101238.34;;;0.02;72.29
61478;BME280;47345;52.334;10.392;2023-04-06T04:51:59;101237.00;;;0.00;72.22
61478;BME280;47345;52.334;10.392;2023-04-06T04:54:30;101237.03;;;0.00;72.53
61478;BME280;47345;52.334;10.392;2023-04-06T04:57:00;101229.70;;;-0.00;72.55
61478;BME280;47345;52.334;10.392;2023-04-06T04:59:32;101233.07;;;0.00;72.68
61478;BME280;47345;52.334;10.392;2023-04-06T05:02:02;101236.72;;;0.02;72.73
61478;BME280;47345;52.334;10.392;2023-04-06T05:04:33;101231.41;;;0.03;72.81
61478;BME280;47345;52.334;10.392;2023-04-06T05:07:06;101232.46;;;0.03;72.83
61478;BME280;47345;52.334;10.392;2023-04-06T05:09:37;101233.04;;;0.05;72.67
61478;BME280;47345;52.334;10.392;2023-04-06T05:12:08;101232.18;;;0.07;72.82
61478;BME280;47345;52.334;10.392;2023-04-06T05:14:39;101232.54;;;0.09;72.95
61478;BME280;47345;52.334;10.392;2023-04-06T05:17:10;101232.61;;;0.10;73.11
61478;BME280;47345;52.334;10.392;2023-04-06T05:19:41;101231.75;;;0.12;72.97
61478;BME280;47345;52.334;10.392;2023-04-06T05:22:12;101232.29;;;0.14;73.05
61478;BME280;47345;52.334;10.392;2023-04-06T05:24:45;101230.50;;;0.16;73.12
61478;BME280;47345;52.334;10.392;2023-04-06T05:27:16;101230.06;;;0.20;73.38
61478;BME280;47345;52.334;10.392;2023-04-06T05:29:47;101226.86;;;0.21;73.42
61478;BME280;47345;52.334;10.392;2023-04-06T05:32:18;101227.86;;;0.22;73.27
61478;BME280;47345;52.334;10.392;2023-04-06T05:34:52;101225.46;;;0.25;73.33
61478;BME280;47345;52.334;10.392;2023-04-06T05:37:22;101226.42;;;0.29;73.47
61478;BME280;47345;52.334;10.392;2023-04-06T05:39:53;101227.04;;;0.32;73.61
61478;BME280;47345;52.334;10.392;2023-04-06T05:42:24;101226.50;;;0.35;73.70
61478;BME280;47345;52.334;10.392;2023-04-06T05:44:56;101223.01;;;0.37;73.67
61478;BME280;47345;52.334;10.392;2023-04-06T05:47:27;101224.17;;;0.41;73.62
61478;BME280;47345;52.334;10.392;2023-04-06T05:49:59;101219.52;;;0.43;73.53
61478;BME280;47345;52.334;10.392;2023-04-06T05:52:29;101221.78;;;0.48;73.44
61478;BME280;47345;52.334;10.392;2023-04-06T05:55:00;101224.40;;;0.51;73.42
61478;BME280;47345;52.334;10.392;2023-04-06T05:57:31;101227.66;;;0.55;73.48
61478;BME280;47345;52.334;10.392;2023-04-06T06:00:02;101228.83;;;0.58;73.28
61478;BME280;47345;52.334;10.392;2023-04-06T06:02:33;101229.83;;;0.61;73.36
61478;BME280;47345;52.334;10.392;2023-04-06T06:05:04;101227.06;;;0.66;73.38
61478;BME280;47345;52.334;10.392;2023-04-06T06:07:35;101227.36;;;0.69;73.37
61478;BME280;47345;52.334;10.392;2023-04-06T06:10:08;101224.30;;;0.74;73.29
61478;BME280;47345;52.334;10.392;2023-04-06T06:12:39;101226.85;;;0.78;73.47
61478;BME280;47345;52.334;10.392;2023-04-06T06:15:11;101228.17;;;0.81;73.40
61478;BME280;47345;52.334;10.392;2023-04-06T06:17:41;101228.98;;;0.84;73.48
61478;BME280;47345;52.334;10.392;2023-04-06T06:20:14;101228.46;;;0.88;73.47
61478;BME280;47345;52.334;10.392;2023-04-06T06:22:44;101224.25;;;0.91;73.51
61478;BME280;47345;52.334;10.392;2023-04-06T06:25:15;101224.56;;;0.96;73.51
61478;BME280;47345;52.334;10.392;2023-04-06T06:27:46;101225.41;;;1.01;73.54
61478;BME280;47345;52.334;10.392;2023-04-06T06:30:17;101223.70;;;1.06;73.72
61478;BME280;47345;52.334;10.392;2023-04-06T06:32:51;101225.95;;;1.11;73.64
61478;BME280;47345;52.334;10.392;2023-04-06T06:35:22;101224.64;;;1.16;73.62
61478;BME280;47345;52.334;10.392;2023-04-06T06:37:54;101228.05;;;1.22;73.43
61478;BME280;47345;52.334;10.392;2023-04-06T06:40:25;101227.86;;;1.29;73.22
61478;BME280;47345;52.334;10.392;2023-04-06T06:42:56;101231.27;;;1.35;73.17
61478;BME280;47345;52.334;10.392;2023-04-06T06:45:27;101233.14;;;1.42;73.29
61478;BME280;47345;52.334;10.392;2023-04-06T06:47:58;101231.70;;;1.51;73.06
61478;BME280;47345;52.334;10.392;2023-04-06T06:50:29;101231.93;;;1.58;73.00
61478;BME280;47345;52.334;10.392;2023-04-06T06:53:00;101231.44;;;1.68;72.82
61478;BME280;47345;52.334;10.392;2023-04-06T06:55:32;101232.39;;;1.75;72.82
61478;BME280;47345;52.334;10.392;2023-04-06T06:58:02;101228.02;;;1.82;72.86
61478;BME280;47345;52.334;10.392;2023-04-06T07:00:33;101229.33;;;1.90;73.08
61478;BME280;47345;52.334;10.392;2023-04-06T07:03:04;101227.95;;;1.97;73.02
61478;BME280;47345;52.334;10.392;2023-04-06T07:05:36;101228.16;;;2.05;73.03
61478;BME280;47345;52.334;10.392;2023-04-06T07:08:09;101226.63;;;2.12;72.81
61478;BME280;47345;52.334;10.392;2023-04-06T07:10:40;101221.04;;;2.18;72.66
61478;BME280;47345;52.334;10.392;2023-04-06T07:13:11;101220.45;;;2.26;72.51
61478;BME280;47345;52.334;10.392;2023-04-06T07:15:43;101224.89;;;2.35;72.15
61478;BME280;47345;52.334;10.392;2023-04-06T07:18:15;101220.46;;;2.44;71.80
61478;BME280;47345;52.334;10.392;2023-04-06T07:20:54;101218.50;;;2.54;71.18
61478;BME280;47345;52.334;10.392;2023-04-06T07:23:24;101225.27;;;2.64;70.74
61478;BME280;47345;52.334;10.392;2023-04-06T07:25:55;101224.45;;;2.75;70.27
61478;BME280;47345;52.334;10.392;2023-04-06T07:28:26;101221.99;;;2.86;69.98
61478;BME280;47345;52.334;10.392;2023-04-06T07:31:05;101224.25;;;2.98;70.05
61478;BME280;47345;52.334;10.392;2023-04-06T07:33:57;101225.54;;;3.10;68.70
61478;BME280;47345;52.334;10.392;2023-04-06T07:36:28;101222.27;;;3.23;68.60
61478;BME280;47345;52.334;10.392;2023-04-06T07:38:59;101221.41;;;3.34;67.96
61478;BME280;47345;52.334;10.392;2023-04-06T07:41:29;101221.73;;;3.44;67.61
61478;BME280;47345;52.334;10.392;2023-04-06T07:44:00;101221.75;;;3.53;67.02
61478;BME280;47345;52.334;10.392;2023-04-06T07:49:02;101218.95;;;3.73;66.64
61478;BME280;47345;52.334;10.392;2023-04-06T07:51:33;101222.48;;;3.81;66.14
61478;BME280;47345;52.334;10.392;2023-04-06T07:54:06;101222.07;;;3.87;65.78
61478;BME280;47345;52.334;10.392;2023-04-06T07:56:37;101221.14;;;3.95;65.66
61478;BME280;47345;52.334;10.392;2023-04-06T07:59:08;101218.56;;;4.03;65.94
61478;BME280;47345;52.334;10.392;2023-04-06T08:01:40;101215.88;;;4.11;65.67
61478;BME280;47345;52.334;10.392;2023-04-06T08:04:12;101219.39;;;4.22;64.55
61478;BME280;47345;52.334;10.392;2023-04-06T08:06:45;101213.34;;;4.30;63.90
61478;BME280;47345;52.334;10.392;2023-04-06T08:09:19;101208.88;;;4.42;63.54
61478;BME280;47345;52.334;10.392;2023-04-06T08:12:53;101211.28;;;4.52;62.58
61478;BME280;47345;52.334;10.392;2023-04-06T08:15:29;101211.19;;;4.64;62.44
61478;BME280;47345;52.334;10.392;2023-04-06T08:18:02;101211.11;;;4.72;62.13
61478;BME280;47345;52.334;10.392;2023-04-06T08:20:35;101207.87;;;4.81;61.78
61478;BME280;47345;52.334;10.392;2023-04-06T08:23:08;101206.44;;;4.88;61.62
61478;BME280;47345;52.334;10.392;2023-04-06T08:25:41;101206.05;;;4.95;61.42
61478;BME280;47345;52.334;10.392;2023-04-06T08:28:17;101206.21;;;5.04;61.25
61478;BME280;47345;52.334;10.392;2023-04-06T08:30:51;101204.67;;;5.12;61.03
61478;BME280;47345;52.334;10.392;2023-04-06T08:33:23;101204.77;;;5.18;60.51
61478;BME280;47345;52.334;10.392;2023-04-06T08:35:55;101206.83;;;5.24;60.66
61478;BME280;47345;52.334;10.392;2023-04-06T08:38:28;101212.18;;;5.30;60.92
61478;BME280;47345;52.334;10.392;2023-04-06T08:41:01;101204.73;;;5.36;60.75
61478;BME280;47345;52.334;10.392;2023-04-06T08:43:46;101206.84;;;5.43;60.34
61478;BME280;47345;52.334;10.392;2023-04-06T08:46:20;101206.23;;;5.53;60.32
61478;BME280;47345;52.334;10.392;2023-04-06T08:48:53;101204.42;;;5.61;60.15
61478;BME280;47345;52.334;10.392;2023-04-06T08:51:25;101204.57;;;5.68;60.01
61478;BME280;47345;52.334;10.392;2023-04-06T08:53:59;101206.41;;;5.78;59.10
61478;BME280;47345;52.334;10.392;2023-04-06T08:56:32;101202.58;;;5.90;58.58
61478;BME280;47345;52.334;10.392;2023-04-06T08:59:06;101198.50;;;6.02;58.75
61478;BME280;47345;52.334;10.392;2023-04-06T09:01:40;101202.94;;;6.13;58.55
61478;BME280;47345;52.334;10.392;2023-04-06T09:04:13;101199.08;;;6.22;57.96
61478;BME280;47345;52.334;10.392;2023-04-06T09:06:49;101201.85;;;6.32;57.93
61478;BME280;47345;52.334;10.392;2023-04-06T09:09:22;101205.41;;;6.39;58.03
61478;BME280;47345;52.334;10.392;2023-04-06T09:11:56;101207.05;;;6.45;57.72
61478;BME280;47345;52.334;10.392;2023-04-06T09:14:39;101203.19;;;6.51;57.19
61478;BME280;47345;52.334;10.392;2023-04-06T09:17:21;101202.47;;;6.57;56.69
61478;BME280;47345;52.334;10.392;2023-04-06T09:19:54;101201.27;;;6.65;56.36
61478;BME280;47345;52.334;10.392;2023-04-06T09:22:37;101200.86;;;6.72;55.77
61478;BME280;47345;52.334;10.392;2023-04-06T09:25:20;101201.33;;;6.81;55.77
61478;BME280;47345;52.334;10.392;2023-04-06T09:28:02;101197.87;;;6.89;55.48
61478;BME280;47345;52.334;10.392;2023-04-06T09:30:36;101195.96;;;6.95;54.97
61478;BME280;47345;52.334;10.392;2023-04-06T09:33:09;101193.40;;;7.02;53.76
61478;BME280;47345;52.334;10.392;2023-04-06T09:35:51;101188.39;;;7.08;54.42
61478;BME280;47345;52.334;10.392;2023-04-06T09:38:24;101189.54;;;7.12;54.44
61478;BME280;47345;52.334;10.392;2023-04-06T09:40:56;101189.58;;;7.20;52.62
61478;BME280;47345;52.334;10.392;2023-04-06T09:43:31;101193.42;;;7.26;53.48
61478;BME280;47345;52.334;10.392;2023-04-06T09:46:05;101193.30;;;7.30;53.44
61478;BME280;47345;52.334;10.392;2023-04-06T09:48:39;101184.73;;;7.32;53.94
61478;BME280;47345;52.334;10.392;2023-04-06T09:51:15;101183.48;;;7.37;53.74
61478;BME280;47345;52.334;10.392;2023-04-06T09:53:51;101178.83;;;7.45;52.90
61478;BME280;47345;52.334;10.392;2023-04-06T09:56:33;101179.64;;;7.53;54.00
61478;BME280;47345;52.334;10.392;2023-04-06T09:59:18;101178.50;;;7.59;54.20
61478;BME280;47345;52.334;10.392;2023-04-06T10:01:55;101177.05;;;7.63;52.97
61478;BME280;47345;52.334;10.392;2023-04-06T10:04:36;101171.80;;;7.68;53.54
61478;BME280;47345;52.334;10.392;2023-04-06T10:07:12;101176.05;;;7.74;54.17
61478;BME280;47345;52.334;10.392;2023-04-06T10:09:46;101171.20;;;7.76;53.57
61478;BME280;47345;52.334;10.392;2023-04-06T10:12:20;101168.86;;;7.81;53.16
61478;BME280;47345;52.334;10.392;2023-04-06T10:14:54;101165.75;;;7.89;53.73
61478;BME280;47345;52.334;10.392;2023-04-06T10:17:27;101169.92;;;7.94;54.29
61478;BME280;47345;52.334;10.392;2023-04-06T10:20:03;101168.03;;;7.99;54.58
61478;BME280;47345;52.334;10.392;2023-04-06T10:22:41;101166.40;;;8.05;53.59
61478;BME280;47345;52.334;10.392;2023-04-06T10:25:16;101164.68;;;8.17;52.56
61478;BME280;47345;52.334;10.392;2023-04-06T10:28:00;101159.90;;;8.23;52.47
61478;BME280;47345;52.334;10.392;2023-04-06T10:30:34;101164.11;;;8.26;52.70
61478;BME280;47345;52.334;10.392;2023-04-06T10:33:17;101161.47;;;8.29;52.50
61478;BME280;47345;52.334;10.392;2023-04-06T10:35:50;101162.68;;;8.31;52.03
61478;BME280;47345;52.334;10.392;2023-04-06T10:38:22;101153.88;;;8.35;51.71
61478;BME280;47345;52.334;10.392;2023-04-06T10:41:09;101154.08;;;8.42;51.57
61478;BME280;47345;52.334;10.392;2023-04-06T10:43:42;101151.35;;;8.47;51.63
61478;BME280;47345;52.334;10.392;2023-04-06T10:46:26;101148.75;;;8.51;51.43
61478;BME280;47345;52.334;10.392;2023-04-06T10:49:11;101144.17;;;8.55;51.46
61478;BME280;47345;52.334;10.392;2023-04-06T10:51:44;101144.91;;;8.60;51.62
61478;BME280;47345;52.334;10.392;2023-04-06T10:54:17;101139.63;;;8.65;51.20
61478;BME280;47345;52.334;10.392;2023-04-06T10:56:50;101139.48;;;8.66;51.07
61478;BME280;47345;52.334;10.392;2023-04-06T10:59:23;101137.92;;;8.71;50.67
61478;BME280;47345;52.334;10.392;2023-04-06T11:01:56;101136.55;;;8.69;50.62
61478;BME280;47345;52.334;10.392;2023-04-06T11:04:27;101130.84;;;8.67;50.98
61478;BME280;47345;52.334;10.392;2023-04-06T11:06:59;101130.27;;;8.67;50.70
61478;BME280;47345;52.334;10.392;2023-04-06T11:09:31;101129.98;;;8.73;50.74
61478;BME280;47345;52.334;10.392;2023-04-06T11:12:06;101130.23;;;8.81;51.54
61478;BME280;47345;52.334;10.392;2023-04-06T11:14:39;101128.81;;;8.84;51.36
61478;BME280;47345;52.334;10.392;2023-04-06T11:17:12;101126.09;;;8.87;51.03
61478;BME280;47345;52.334;10.392;2023-04-06T11:19:44;101123.91;;;8.93;50.67
61478;BME280;47345;52.334;10.392;2023-04-06T11:22:16;101126.30;;;8.98;50.73
61478;BME280;47345;52.334;10.392;2023-04-06T11:24:48;101127.08;;;9.01;50.69
61478;BME280;47345;52.334;10.392;2023-04-06T11:27:22;101128.86;;;9.03;50.50
61478;BME280;47345;52.334;10.392;2023-04-06T11:29:56;101129.05;;;9.07;50.41
61478;BME280;47345;52.334;10.392;2023-04-06T11:32:29;101119.61;;;9.10;50.36
61478;BME280;47345;52.334;10.392;2023-04-06T11:35:02;101114.48;;;9.13;50.39
61478;BME280;47345;52.334;10.392;2023-04-06T11:37:34;101114.88;;;9.14;50.42
61478;BME280;47345;52.334;10.392;2023-04-06T11:40:10;101109.50;;;9.17;50.40
61478;BME280;47345;52.334;10.392;2023-04-06T11:42:53;101109.86;;;9.22;50.65
61478;BME280;47345;52.334;10.392;2023-04-06T11:45:25;101107.65;;;9.26;49.99
61478;BME280;47345;52.334;10.392;2023-04-06T11:48:00;101102.05;;;9.29;50.20
61478;BME280;47345;52.334;10.392;2023-04-06T11:50:34;101100.50;;;9.28;50.21
61478;BME280;47345;52.334;10.392;2023-04-06T11:53:06;101102.84;;;9.28;50.37
61478;BME280;47345;52.334;10.392;2023-04-06T11:55:40;101097.83;;;9.31;50.57
61478;BME280;47345;52.334;10.392;2023-04-06T11:58:14;101097.65;;;9.35;50.38
61478;BME280;47345;52.334;10.392;2023-04-06T12:00:46;101093.58;;;9.39;50.21
61478;BME280;47345;52.334;10.392;2023-04-06T12:03:17;101092.95;;;9.42;49.13
61478;BME280;47345;52.334;10.392;2023-04-06T12:05:48;101088.42;;;9.50;48.92
61478;BME280;47345;52.334;10.392;2023-04-06T12:08:18;101088.23;;;9.55;49.00
61478;BME280;47345;52.334;10.392;2023-04-06T12:10:49;101088.43;;;9.62;48.89
61478;BME280;47345;52.334;10.392;2023-04-06T12:13:20;101089.10;;;9.66;48.50
61478;BME280;47345;52.334;10.392;2023-04-06T12:15:50;101089.14;;;9.66;48.93
61478;BME280;47345;52.334;10.392;2023-04-06T12:18:21;101083.86;;;9.67;48.52
61478;BME280;47345;52.334;10.392;2023-04-06T12:20:52;101085.27;;;9.69;48.94
61478;BME280;47345;52.334;10.392;2023-04-06T12:23:23;101086.43;;;9.71;48.09
61478;BME280;47345;52.334;10.392;2023-04-06T12:25:53;101086.65;;;9.72;48.68
61478;BME280;47345;52.334;10.392;2023-04-06T12:28:24;101083.73;;;9.71;47.92
61478;BME280;47345;52.334;10.392;2023-04-06T12:30:56;101079.25;;;9.69;47.94
61478;BME280;47345;52.334;10.392;2023-04-06T12:33:27;101077.95;;;9.72;48.27
61478;BME280;47345;52.334;10.392;2023-04-06T12:35:58;101075.92;;;9.75;47.60
61478;BME280;47345;52.334;10.392;2023-04-06T12:38:29;101075.71;;;9.80;48.39
61478;BME280;47345;52.334;10.392;2023-04-06T12:40:59;101073.21;;;9.86;48.30
61478;BME280;47345;52.334;10.392;2023-04-06T12:43:30;101072.77;;;9.90;47.71
61478;BME280;47345;52.334;10.392;2023-04-06T12:46:01;101068.84;;;9.94;47.92
61478;BME280;47345;52.334;10.392;2023-04-06T12:48:31;101069.00;;;9.97;47.76
61478;BME280;47345;52.334;10.392;2023-04-06T12:51:03;101064.65;;;10.03;45.84
61478;BME280;47345;52.334;10.392;2023-04-06T12:53:35;101060.02;;;10.09;45.59
61478;BME280;47345;52.334;10.392;2023-04-06T12:56:13;101054.34;;;10.09;45.47
61478;BME280;47345;52.334;10.392;2023-04-06T12:58:45;101056.44;;;10.06;46.13
61478;BME280;47345;52.334;10.392;2023-04-06T13:01:16;101050.61;;;10.04;45.92
61478;BME280;47345;52.334;10.392;2023-04-06T13:03:47;101047.40;;;10.02;45.76
61478;BME280;47345;52.334;10.392;2023-04-06T13:06:19;101047.59;;;10.05;45.46
61478;BME280;47345;52.334;10.392;2023-04-06T13:08:50;101045.23;;;10.08;45.38
61478;BME280;47345;52.334;10.392;2023-04-06T13:11:22;101044.15;;;10.08;44.97
61478;BME280;47345;52.334;10.392;2023-04-06T13:13:57;101045.99;;;10.10;45.20
61478;BME280;47345;52.334;10.392;2023-04-06T13:16:29;101041.30;;;10.13;45.70
61478;BME280;47345;52.334;10.392;2023-04-06T13:19:02;101042.39;;;10.19;45.15
61478;BME280;47345;52.334;10.392;2023-04-06T13:21:33;101039.85;;;10.22;45.09